Time;durP1;ratioP1;P1;durP2;ratioP2;P2;SDS_P1;SDS_P2;PMS_P1;PMS_P2;Temp;Humidity;BMP_temperature;BMP_pressure;BME280_temperature;BME280_humidity;BME280_pressure;Samples;Min_cycle;Max_cycle;Signal;HPM_P1;HPM_P2
2023/06/27 00:01:05;;;;;;;3.30;2.63;;;;;;;-146.25;100.00;57403.91;5050662;28;20194;-84
2023/06/27 00:03:33;;;;;;;2.70;2.50;;;;;;;-146.25;100.00;57403.91;5051525;28;20237;-81
2023/06/27 00:06:00;;;;;;;3.30;3.10;;;;;;;-146.25;100.00;57403.91;5050916;28;20779;-81
2023/06/27 00:08:28;;;;;;;3.13;2.75;;;;;;;-146.25;100.00;57403.91;5050985;28;20526;-81
2023/06/27 00:10:55;;;;;;;5.78;3.67;;;;;;;-146.25;100.00;57403.91;5050828;28;20325;-82
2023/06/27 00:13:22;;;;;;;2.63;2.42;;;;;;;-146.25;100.00;57403.91;5050975;28;20633;-82
2023/06/27 00:15:52;;;;;;;5.43;3.28;;;;;;;-146.25;100.00;57403.91;5051460;28;20674;-82
2023/06/27 00:18:22;;;;;;;3.95;3.28;;;;;;;-146.25;100.00;57403.91;5050288;28;20193;-81
2023/06/27 00:20:49;;;;;;;3.38;2.05;;;;;;;-146.25;100.00;57403.91;5050103;28;20252;-82
2023/06/27 00:23:21;;;;;;;2.33;2.22;;;;;;;-146.25;100.00;57403.91;5050455;28;20672;-84
2023/06/27 00:25:48;;;;;;;2.95;2.75;;;;;;;-146.25;100.00;57403.91;5050904;28;20304;-82
2023/06/27 00:28:15;;;;;;;3.33;3.03;;;;;;;-146.25;100.00;57403.91;5050209;28;20236;-82
2023/06/27 00:30:42;;;;;;;4.75;3.20;;;;;;;-146.25;100.00;57403.91;5049463;28;20232;-81
2023/06/27 00:33:10;;;;;;;5.05;2.72;;;;;;;-146.25;100.00;57403.91;5049459;28;20200;-80
2023/06/27 00:35:40;;;;;;;2.33;2.20;;;;;;;-146.25;100.00;57403.91;5050113;28;20303;-81
2023/06/27 00:38:07;;;;;;;2.72;2.53;;;;;;;-146.25;100.00;57403.91;5051464;28;20196;-83
2023/06/27 00:40:34;;;;;;;3.22;2.88;;;;;;;-146.25;100.00;57403.91;5051824;28;20289;-81
2023/06/27 00:43:02;;;;;;;2.30;2.10;;;;;;;-146.25;100.00;57403.91;5051442;28;20305;-82
2023/06/27 00:45:29;;;;;;;3.40;2.50;;;;;;;-146.25;100.00;57403.91;5050512;28;20203;-82
2023/06/27 00:47:57;;;;;;;3.13;2.92;;;;;;;-146.25;100.00;57403.91;5051004;28;20227;-82
2023/06/27 00:50:26;;;;;;;2.75;2.55;;;;;;;-146.25;100.00;57403.91;5051177;28;20325;-81
2023/06/27 00:52:56;;;;;;;3.22;3.00;;;;;;;-146.25;100.00;57403.91;5052183;28;20228;-82
2023/06/27 00:55:24;;;;;;;2.50;2.25;;;;;;;-146.25;100.00;57403.91;5050093;28;20223;-83
2023/06/27 00:57:53;;;;;;;2.85;2.65;;;;;;;-146.25;100.00;57403.91;5050860;28;20229;-83
2023/06/27 01:00:21;;;;;;;2.47;2.28;;;;;;;-146.25;100.00;57403.91;5050236;28;20660;-82
2023/06/27 01:02:48;;;;;;;3.00;2.65;;;;;;;-146.25;100.00;57403.91;5029068;28;20596;-82
2023/06/27 01:05:19;;;;;;;2.60;2.40;;;;;;;-146.25;100.00;57403.91;5048576;28;20210;-82
2023/06/27 01:07:51;;;;;;;3.78;2.75;;;;;;;-146.25;100.00;57403.91;5049211;28;20316;-82
2023/06/27 01:10:27;;;;;;;2.60;2.30;;;;;;;-146.25;100.00;57403.91;5049878;28;20234;-82
2023/06/27 01:13:00;;;;;;;2.80;2.70;;;;;;;-146.25;100.00;57403.91;5049577;28;20303;-82
2023/06/27 01:15:28;;;;;;;2.80;2.60;;;;;;;-146.25;100.00;57403.91;5049701;28;20201;-82
2023/06/27 01:17:56;;;;;;;3.10;2.90;;;;;;;-146.25;100.00;57403.91;5049860;28;20213;-82
2023/06/27 01:20:24;;;;;;;2.92;2.65;;;;;;;-146.25;100.00;57403.91;5048810;28;20216;-82
2023/06/27 01:23:04;;;;;;;2.50;2.40;;;;;;;-146.25;100.00;57403.91;5050858;28;20281;-82
2023/06/27 01:25:33;;;;;;;3.05;2.80;;;;;;;-146.25;100.00;57403.91;5060115;28;20264;-82
2023/06/27 01:28:00;;;;;;;2.35;2.22;;;;;;;-146.25;100.00;57403.91;5053147;28;20248;-82
2023/06/27 01:30:27;;;;;;;3.00;2.80;;;;;;;-146.25;100.00;57403.91;5048730;28;20720;-82
2023/06/27 01:33:04;;;;;;;3.85;2.90;;;;;;;-146.25;100.00;57403.91;5049624;28;20220;-81
2023/06/27 01:35:35;;;;;;;3.00;2.80;;;;;;;-146.25;100.00;57403.91;5048403;28;20205;-81
2023/06/27 01:38:09;;;;;;;2.53;2.33;;;;;;;-146.25;100.00;57403.91;5049011;28;20200;-82
2023/06/27 01:40:40;;;;;;;2.72;2.53;;;;;;;-146.25;100.00;57403.91;5048914;28;20204;-81
2023/06/27 01:43:10;;;;;;;3.10;2.42;;;;;;;-146.25;100.00;57403.91;5048492;28;20671;-82
2023/06/27 01:45:39;;;;;;;2.83;2.10;;;;;;;-146.25;100.00;57403.91;5049024;28;20641;-81
2023/06/27 01:48:08;;;;;;;4.13;3.13;;;;;;;-146.25;100.00;57403.91;5049388;28;20658;-81
2023/06/27 01:50:35;;;;;;;2.22;2.05;;;;;;;-146.25;100.00;57403.91;5048168;28;20740;-82
2023/06/27 01:53:02;;;;;;;3.05;2.75;;;;;;;-146.25;100.00;57403.91;5047921;28;20203;-82
2023/06/27 01:55:29;;;;;;;2.65;2.55;;;;;;;-146.25;100.00;57403.91;5048407;28;20208;-82
2023/06/27 01:57:59;;;;;;;4.35;2.40;;;;;;;-146.25;100.00;57403.91;5048081;28;20206;-81
2023/06/27 02:00:26;;;;;;;2.80;2.60;;;;;;;-146.25;100.00;57403.91;5047816;28;20226;-82
2023/06/27 02:02:53;;;;;;;2.50;2.30;;;;;;;-146.25;100.00;57403.91;5049231;28;20649;-81
2023/06/27 02:05:20;;;;;;;4.57;2.42;;;;;;;-146.25;100.00;57403.91;5047607;28;20206;-82
2023/06/27 02:07:47;;;;;;;3.67;3.38;;;;;;;-146.25;100.00;57403.91;5048431;28;20203;-82
2023/06/27 02:10:14;;;;;;;3.55;2.65;;;;;;;-146.25;100.00;57403.91;5048392;28;20236;-81
2023/06/27 02:12:42;;;;;;;3.28;2.83;;;;;;;-146.25;100.00;57403.91;5048474;28;20306;-82
2023/06/27 02:15:11;;;;;;;2.90;2.70;;;;;;;-146.25;100.00;57403.91;5048176;28;20362;-81
2023/06/27 02:17:38;;;;;;;2.35;2.25;;;;;;;-146.25;100.00;57403.91;5048290;28;20201;-80
2023/06/27 02:20:06;;;;;;;3.15;2.58;;;;;;;-146.25;100.00;57403.91;5048093;28;20211;-82
2023/06/27 02:22:33;;;;;;;3.58;2.13;;;;;;;-146.25;100.00;57403.91;5048812;28;20215;-81
2023/06/27 02:25:00;;;;;;;2.42;2.33;;;;;;;-146.25;100.00;57403.91;5048603;28;20198;-80
2023/06/27 02:27:27;;;;;;;3.28;2.63;;;;;;;-146.25;100.00;57403.91;5048227;28;20590;-81
2023/06/27 02:29:55;;;;;;;1.90;1.80;;;;;;;-146.25;100.00;57403.91;5048205;28;20205;-81
2023/06/27 02:32:24;;;;;;;2.17;2.08;;;;;;;-146.25;100.00;57403.91;5048087;28;20240;-82
2023/06/27 02:34:51;;;;;;;2.95;2.75;;;;;;;-146.25;100.00;57403.91;5048082;28;20676;-81
2023/06/27 02:37:18;;;;;;;3.17;2.97;;;;;;;-146.25;100.00;57403.91;5047471;28;20204;-81
2023/06/27 02:39:45;;;;;;;2.72;2.53;;;;;;;-146.25;100.00;57403.91;5048580;28;20684;-81
2023/06/27 02:42:12;;;;;;;3.25;2.95;;;;;;;-146.25;100.00;57403.91;5048554;28;20204;-80
2023/06/27 02:44:39;;;;;;;3.53;3.25;;;;;;;-146.25;100.00;57403.91;5046633;28;20205;-81
2023/06/27 02:47:06;;;;;;;3.20;2.88;;;;;;;-146.25;100.00;57403.91;5047798;28;20203;-81
2023/06/27 02:49:34;;;;;;;2.90;2.70;;;;;;;-146.25;100.00;57403.91;5047342;28;20583;-82
2023/06/27 02:52:01;;;;;;;7.35;6.35;;;;;;;-146.25;100.00;57403.91;5047572;28;20266;-82
2023/06/27 02:54:28;;;;;;;44.15;20.98;;;;;;;-146.25;100.00;57403.91;5048593;28;20213;-82
2023/06/27 02:56:55;;;;;;;6.95;4.65;;;;;;;-146.25;100.00;57403.91;5051419;28;20598;-81
2023/06/27 02:59:22;;;;;;;2.78;2.50;;;;;;;-146.25;100.00;57403.91;5051134;28;20202;-84
2023/06/27 03:01:49;;;;;;;3.55;2.47;;;;;;;-146.25;100.00;57403.91;5051713;28;20629;-80
2023/06/27 03:04:21;;;;;;;2.90;2.40;;;;;;;-146.25;100.00;57403.91;5051517;28;20223;-81
2023/06/27 03:06:49;;;;;;;3.75;2.75;;;;;;;-146.25;100.00;57403.91;5050862;28;20193;-81
2023/06/27 03:09:18;;;;;;;3.20;2.85;;;;;;;-146.25;100.00;57403.91;5052017;28;20206;-82
2023/06/27 03:11:45;;;;;;;3.22;2.72;;;;;;;-146.25;100.00;57403.91;5050529;28;20239;-81
2023/06/27 03:14:12;;;;;;;3.35;2.90;;;;;;;-146.25;100.00;57403.91;5051194;28;20205;-80
2023/06/27 03:16:39;;;;;;;3.08;2.85;;;;;;;-146.25;100.00;57403.91;5052093;28;20222;-83
2023/06/27 03:19:05;;;;;;;4.38;2.72;;;;;;;-146.25;100.00;57403.91;5050847;28;20210;-82
2023/06/27 03:21:33;;;;;;;3.50;2.60;;;;;;;-146.25;100.00;57403.91;5050781;28;20282;-82
2023/06/27 03:24:01;;;;;;;4.65;2.80;;;;;;;-146.25;100.00;57403.91;5051058;28;20227;-82
2023/06/27 03:26:29;;;;;;;2.80;2.60;;;;;;;-146.25;100.00;57403.91;5049889;28;20195;-82
2023/06/27 03:28:56;;;;;;;4.72;3.13;;;;;;;-146.25;100.00;57403.91;5051370;28;20661;-82
2023/06/27 03:31:23;;;;;;;4.57;2.88;;;;;;;-146.25;100.00;57403.91;5051887;28;20235;-83
2023/06/27 03:33:52;;;;;;;3.13;2.92;;;;;;;-146.25;100.00;57403.91;5050581;28;20203;-82
2023/06/27 03:36:18;;;;;;;2.95;2.80;;;;;;;-146.25;100.00;57403.91;5051680;28;20214;-82
2023/06/27 03:38:48;;;;;;;3.03;2.78;;;;;;;-146.25;100.00;57403.91;5051901;28;20658;-84
2023/06/27 03:41:17;;;;;;;3.42;3.00;;;;;;;-146.25;100.00;57403.91;5051375;28;20593;-82
2023/06/27 03:43:44;;;;;;;3.65;3.25;;;;;;;-146.25;100.00;57403.91;5051101;28;20648;-82
2023/06/27 03:46:12;;;;;;;2.88;2.67;;;;;;;-146.25;100.00;57403.91;5051157;28;20203;-82
2023/06/27 03:48:39;;;;;;;4.05;3.75;;;;;;;-146.25;100.00;57403.91;5050729;28;20554;-83
2023/06/27 03:51:06;;;;;;;2.97;2.78;;;;;;;-146.25;100.00;57403.91;5051066;28;20263;-82
2023/06/27 03:53:33;;;;;;;3.28;3.08;;;;;;;-146.25;100.00;57403.91;5051233;28;20203;-82
2023/06/27 03:56:03;;;;;;;3.53;3.22;;;;;;;-146.25;100.00;57403.91;5050670;28;20227;-83
2023/06/27 03:58:32;;;;;;;4.18;3.35;;;;;;;-146.25;100.00;57403.91;5053007;28;20253;-81
2023/06/27 04:01:00;;;;;;;3.30;3.10;;;;;;;-146.25;100.00;57403.91;5051333;28;20278;-84
2023/06/27 04:03:27;;;;;;;2.92;2.72;;;;;;;-146.25;100.00;57403.91;5049849;28;20218;-83
2023/06/27 04:05:54;;;;;;;3.42;2.90;;;;;;;-146.25;100.00;57403.91;5049813;28;20310;-83
2023/06/27 04:08:21;;;;;;;8.00;6.13;;;;;;;-146.25;100.00;57403.91;5050423;28;20281;-82
2023/06/27 04:10:48;;;;;;;5.32;2.58;;;;;;;-146.25;100.00;57403.91;5050698;28;20227;-81
2023/06/27 04:13:15;;;;;;;5.60;5.15;;;;;;;-146.25;100.00;57403.91;5050459;28;20260;-84
2023/06/27 04:15:43;;;;;;;4.25;3.20;;;;;;;-146.25;100.00;57403.91;5050415;28;20191;-81
2023/06/27 04:18:10;;;;;;;14.40;9.27;;;;;;;-146.25;100.00;57403.91;5050170;28;20345;-82
2023/06/27 04:20:37;;;;;;;5.60;4.80;;;;;;;-146.25;100.00;57403.91;5050633;28;20203;-81
2023/06/27 04:23:04;;;;;;;5.20;4.55;;;;;;;-146.25;100.00;57403.91;5050927;28;20194;-81
2023/06/27 04:25:32;;;;;;;3.28;2.97;;;;;;;-146.25;100.00;57403.91;5049765;28;20203;-81
2023/06/27 04:27:59;;;;;;;2.60;2.40;;;;;;;-146.25;100.00;57403.91;5050312;28;20638;-82
2023/06/27 04:30:27;;;;;;;3.17;2.97;;;;;;;-146.25;100.00;57403.91;5050442;28;20206;-81
2023/06/27 04:32:55;;;;;;;3.00;2.90;;;;;;;-146.25;100.00;57403.91;5050039;28;20579;-81
2023/06/27 04:35:23;;;;;;;4.97;4.40;;;;;;;-146.25;100.00;57403.91;5050452;28;20234;-81
2023/06/27 04:37:51;;;;;;;3.50;3.30;;;;;;;-146.25;100.00;57403.91;5050248;28;20545;-81
2023/06/27 04:40:18;;;;;;;7.35;5.00;;;;;;;-146.25;100.00;57403.91;5049945;28;20741;-81
2023/06/27 04:42:46;;;;;;;24.63;13.88;;;;;;;-146.25;100.00;57403.91;5049511;28;20716;-81
2023/06/27 04:45:13;;;;;;;6.90;6.13;;;;;;;-146.25;100.00;57403.91;5049730;28;20652;-82
2023/06/27 04:47:42;;;;;;;4.00;3.80;;;;;;;-146.25;100.00;57403.91;5049647;28;20233;-80
2023/06/27 04:50:14;;;;;;;10.50;9.07;;;;;;;-146.25;100.00;57403.91;5053924;28;20242;-82
2023/06/27 04:52:41;;;;;;;7.28;5.60;;;;;;;-146.25;100.00;57403.91;5057843;28;20225;-81
2023/06/27 04:55:09;;;;;;;5.35;3.75;;;;;;;-146.25;100.00;57403.91;5051717;28;20209;-81
2023/06/27 04:57:36;;;;;;;3.85;3.65;;;;;;;-146.25;100.00;57403.91;5049747;28;20348;-82
2023/06/27 05:00:05;;;;;;;4.60;4.20;;;;;;;-146.25;100.00;57403.91;5050043;28;20198;-82
2023/06/27 05:02:31;;;;;;;4.38;4.07;;;;;;;-146.25;100.00;57403.91;5049275;28;20222;-82
2023/06/27 05:04:59;;;;;;;6.68;4.22;;;;;;;-146.25;100.00;57403.91;5053221;28;20213;-80
2023/06/27 05:07:27;;;;;;;5.00;4.57;;;;;;;-146.25;100.00;57403.91;5054029;28;20286;-82
2023/06/27 05:09:54;;;;;;;4.40;4.10;;;;;;;-146.25;100.00;57403.91;5049172;28;20351;-82
2023/06/27 05:12:21;;;;;;;4.80;4.50;;;;;;;-146.25;100.00;57403.91;5049122;28;20323;-81
2023/06/27 05:14:49;;;;;;;4.78;4.40;;;;;;;-146.25;100.00;57403.91;5049221;28;20683;-82
2023/06/27 05:17:17;;;;;;;5.25;3.83;;;;;;;-146.25;100.00;57403.91;5048661;28;20203;-81
2023/06/27 05:19:47;;;;;;;7.43;4.80;;;;;;;-146.25;100.00;57403.91;5048423;28;20286;-82
2023/06/27 05:22:14;;;;;;;4.65;4.35;;;;;;;-146.25;100.00;57403.91;5049917;28;20199;-81
2023/06/27 05:24:42;;;;;;;5.38;4.88;;;;;;;-146.25;100.00;57403.91;5049169;28;20203;-82
2023/06/27 05:27:09;;;;;;;4.03;3.72;;;;;;;-146.25;100.00;57403.91;5049368;28;20211;-82
2023/06/27 05:29:36;;;;;;;4.53;4.22;;;;;;;-146.25;100.00;57403.91;5039670;28;20252;-81
2023/06/27 05:32:03;;;;;;;4.97;4.60;;;;;;;-146.25;100.00;57403.91;5041164;28;20650;-81
2023/06/27 05:34:30;;;;;;;5.43;5.03;;;;;;;-146.25;100.00;57403.91;5029439;28;20463;-82
2023/06/27 05:36:57;;;;;;;5.05;4.63;;;;;;;-146.25;100.00;57403.91;5029925;28;20290;-81
2023/06/27 05:39:24;;;;;;;9.23;5.05;;;;;;;-146.25;100.00;57403.91;5028746;28;20196;-82
2023/06/27 05:41:52;;;;;;;4.35;4.05;;;;;;;-146.25;100.00;57403.91;5028650;28;20286;-82
2023/06/27 05:44:19;;;;;;;4.65;4.32;;;;;;;-146.25;100.00;57403.91;5028849;28;20257;-83
2023/06/27 05:46:48;;;;;;;3.67;3.47;;;;;;;-146.25;100.00;57403.91;5028546;28;20207;-81
2023/06/27 05:49:16;;;;;;;4.00;3.70;;;;;;;-146.25;100.00;57403.91;5029905;28;20210;-82
2023/06/27 05:51:43;;;;;;;3.85;3.58;;;;;;;-146.25;100.00;57403.91;5028167;28;20214;-83
2023/06/27 05:54:09;;;;;;;3.80;3.50;;;;;;;-146.25;100.00;57403.91;5028453;28;20218;-84
2023/06/27 05:56:37;;;;;;;3.53;3.42;;;;;;;-146.25;100.00;57403.91;5028670;28;20265;-83
2023/06/27 05:59:06;;;;;;;4.18;3.97;;;;;;;-146.25;100.00;57403.91;5029147;28;20262;-84
2023/06/27 06:01:34;;;;;;;4.65;4.35;;;;;;;-146.25;100.00;57403.91;5027196;28;20713;-82
2023/06/27 06:04:01;;;;;;;5.43;4.10;;;;;;;-146.25;100.00;57403.91;5028162;28;20204;-82
2023/06/27 06:06:29;;;;;;;4.30;4.00;;;;;;;-146.25;100.00;57403.91;5028650;28;20253;-82
2023/06/27 06:08:55;;;;;;;5.50;3.75;;;;;;;-146.25;100.00;57403.91;5030269;28;20273;-83
2023/06/27 06:11:22;;;;;;;4.95;4.05;;;;;;;-146.25;100.00;57403.91;5029335;28;20458;-83
2023/06/27 06:13:50;;;;;;;4.07;3.67;;;;;;;-146.25;100.00;57403.91;5028947;28;20200;-83
2023/06/27 06:16:18;;;;;;;7.25;4.15;;;;;;;-146.25;100.00;57403.91;5029179;28;20288;-83
2023/06/27 06:18:45;;;;;;;3.75;3.55;;;;;;;-146.25;100.00;57403.91;5028183;28;20204;-82
2023/06/27 06:21:13;;;;;;;3.85;3.55;;;;;;;-146.25;100.00;57403.91;5028066;28;20596;-80
2023/06/27 06:23:40;;;;;;;3.45;3.25;;;;;;;-146.25;100.00;57403.91;5027982;28;20295;-81
2023/06/27 06:26:07;;;;;;;3.75;3.40;;;;;;;-146.25;100.00;57403.91;5028196;28;20199;-82
2023/06/27 06:28:36;;;;;;;3.88;3.03;;;;;;;-146.25;100.00;57403.91;5027985;28;20295;-82
2023/06/27 06:31:02;;;;;;;3.90;3.70;;;;;;;-146.25;100.00;57403.91;5027873;28;20664;-82
2023/06/27 06:33:31;;;;;;;3.60;3.40;;;;;;;-146.25;100.00;57403.91;5027794;28;20683;-83
2023/06/27 06:35:58;;;;;;;4.07;3.63;;;;;;;-146.25;100.00;57403.91;5028183;28;20199;-82
2023/06/27 06:38:26;;;;;;;3.20;3.00;;;;;;;-146.25;100.00;57403.91;5028066;28;20192;-82
2023/06/27 06:40:53;;;;;;;3.17;3.05;;;;;;;-146.25;100.00;57403.91;5027689;28;20661;-84
2023/06/27 06:43:19;;;;;;;3.60;2.75;;;;;;;-146.25;100.00;57403.91;5028036;28;20196;-82
2023/06/27 06:45:46;;;;;;;3.40;2.85;;;;;;;-146.25;100.00;57403.91;5028386;28;20203;-83
2023/06/27 06:48:13;;;;;;;3.45;3.17;;;;;;;-146.25;100.00;57403.91;5027660;28;20204;-84
2023/06/27 06:50:41;;;;;;;3.65;3.35;;;;;;;-146.25;100.00;57403.91;5028659;28;20246;-82
2023/06/27 06:53:08;;;;;;;3.13;2.95;;;;;;;-146.25;100.00;57403.91;5028253;28;20300;-82
2023/06/27 06:55:35;;;;;;;3.42;3.00;;;;;;;-146.25;100.00;57403.91;5027167;28;20210;-83
2023/06/27 06:58:03;;;;;;;2.70;2.60;;;;;;;-146.25;100.00;57403.91;5028594;28;20261;-83
2023/06/27 07:00:30;;;;;;;3.58;3.20;;;;;;;-146.25;100.00;57403.91;5027872;28;20290;-82
2023/06/27 07:02:58;;;;;;;4.25;2.88;;;;;;;-146.25;100.00;57403.91;5027080;28;20657;-82
2023/06/27 07:05:25;;;;;;;3.47;3.10;;;;;;;-146.25;100.00;57403.91;5028968;28;20526;-83
2023/06/27 07:07:54;;;;;;;3.70;3.15;;;;;;;-146.25;100.00;57403.91;5027318;28;20261;-84
2023/06/27 07:10:28;;;;;;;2.88;2.78;;;;;;;-146.25;100.00;57403.91;5027902;28;20257;-83
2023/06/27 07:13:05;;;;;;;2.75;2.63;;;;;;;-146.25;100.00;57403.91;5028955;28;20235;-83
2023/06/27 07:15:33;;;;;;;3.38;3.17;;;;;;;-146.25;100.00;57403.91;5030934;28;20199;-82
2023/06/27 07:18:00;;;;;;;3.08;2.88;;;;;;;-146.25;100.00;57403.91;5028010;28;20218;-83
2023/06/27 07:20:28;;;;;;;2.78;2.67;;;;;;;-146.25;100.00;57403.91;5028561;28;20746;-83
2023/06/27 07:22:56;;;;;;;3.08;2.88;;;;;;;-146.25;100.00;57403.91;5027353;28;20569;-83
2023/06/27 07:25:23;;;;;;;2.70;2.50;;;;;;;-146.25;100.00;57403.91;5027237;28;20341;-83
2023/06/27 07:27:51;;;;;;;3.00;2.80;;;;;;;-146.25;100.00;57403.91;5027911;28;20668;-83
2023/06/27 07:30:18;;;;;;;2.75;2.55;;;;;;;-146.25;100.00;57403.91;5027867;28;20306;-83
2023/06/27 07:32:45;;;;;;;3.70;3.38;;;;;;;-146.25;100.00;57403.91;5027491;28;20243;-83
2023/06/27 07:35:12;;;;;;;3.42;3.15;;;;;;;-146.25;100.00;57403.91;5032842;28;20571;-82
2023/06/27 07:37:39;;;;;;;3.00;2.90;;;;;;;-146.25;100.00;57403.91;5030519;28;20223;-82
2023/06/27 07:40:08;;;;;;;2.88;2.78;;;;;;;-146.25;100.00;57403.91;5027855;28;20203;-82
2023/06/27 07:42:35;;;;;;;5.05;3.40;;;;;;;-146.25;100.00;57403.91;5031426;28;20192;-82
2023/06/27 07:45:03;;;;;;;3.17;3.05;;;;;;;-146.25;100.00;57403.91;5031279;28;20218;-82
2023/06/27 07:47:30;;;;;;;2.90;2.80;;;;;;;-146.25;100.00;57403.91;5035629;28;20199;-83
2023/06/27 07:49:57;;;;;;;3.20;2.92;;;;;;;-146.25;100.00;57403.91;5033898;28;20326;-82
2023/06/27 07:52:24;;;;;;;3.05;2.78;;;;;;;-146.25;100.00;57403.91;5029917;28;20231;-82
2023/06/27 07:54:51;;;;;;;2.97;2.88;;;;;;;-146.25;100.00;57403.91;5034757;28;20218;-80
2023/06/27 07:57:19;;;;;;;3.60;3.47;;;;;;;-146.25;100.00;57403.91;5044635;28;20211;-82
2023/06/27 07:59:46;;;;;;;3.47;3.05;;;;;;;-146.25;100.00;57403.91;5038293;28;20199;-83
2023/06/27 08:02:13;;;;;;;3.38;3.05;;;;;;;-146.25;100.00;57403.91;5039816;28;20658;-82
2023/06/27 08:04:40;;;;;;;3.65;3.45;;;;;;;-146.25;100.00;57403.91;5040589;28;20199;-83
2023/06/27 08:07:07;;;;;;;3.30;3.00;;;;;;;-146.25;100.00;57403.91;5046170;28;20352;-82
2023/06/27 08:09:34;;;;;;;3.15;2.95;;;;;;;-146.25;100.00;57403.91;5050136;28;20210;-82
2023/06/27 08:12:01;;;;;;;2.55;2.45;;;;;;;-146.25;100.00;57403.91;5051014;28;20226;-81
2023/06/27 08:14:29;;;;;;;2.70;2.60;;;;;;;-146.25;100.00;57403.91;5050701;28;20207;-82
2023/06/27 08:16:56;;;;;;;2.40;2.30;;;;;;;-146.25;100.00;57403.91;5050835;28;20249;-83
2023/06/27 08:19:23;;;;;;;2.80;2.60;;;;;;;-146.25;100.00;57403.91;5048439;28;20302;-82
2023/06/27 08:21:50;;;;;;;2.67;2.58;;;;;;;-146.25;100.00;57403.91;5048437;28;20230;-82
2023/06/27 08:24:17;;;;;;;2.92;2.78;;;;;;;-146.25;100.00;57403.91;5030213;28;20231;-81
2023/06/27 08:26:45;;;;;;;4.40;3.25;;;;;;;-146.25;100.00;57403.91;5033863;28;20243;-83
2023/06/27 08:29:11;;;;;;;2.63;2.53;;;;;;;-146.25;100.00;57403.91;5036517;28;20231;-83
2023/06/27 08:31:41;;;;;;;3.90;3.15;;;;;;;-146.25;100.00;57403.91;5048909;28;20652;-83
2023/06/27 08:34:08;;;;;;;4.10;2.67;;;;;;;-146.25;100.00;57403.91;5048468;28;20665;-83
2023/06/27 08:36:36;;;;;;;2.60;2.50;;;;;;;-146.25;100.00;57403.91;5048810;28;20632;-82
2023/06/27 08:39:03;;;;;;;2.80;2.63;;;;;;;-146.25;100.00;57403.91;5047891;28;20277;-82
2023/06/27 08:41:30;;;;;;;3.33;2.50;;;;;;;-146.25;100.00;57403.91;5048089;28;20285;-82
2023/06/27 08:43:57;;;;;;;2.75;2.65;;;;;;;-146.25;100.00;57403.91;5047977;28;20300;-82
2023/06/27 08:46:25;;;;;;;2.58;2.47;;;;;;;-146.25;100.00;57403.91;5047965;28;20253;-82
2023/06/27 08:48:55;;;;;;;2.50;2.30;;;;;;;-146.25;100.00;57403.91;5048376;28;20291;-82
2023/06/27 08:51:24;;;;;;;2.67;2.58;;;;;;;-146.25;100.00;57403.91;5048720;28;20277;-82
2023/06/27 08:53:56;;;;;;;3.38;3.17;;;;;;;-146.25;100.00;57403.91;5047204;28;20242;-81
2023/06/27 08:56:25;;;;;;;2.53;2.42;;;;;;;-146.25;100.00;57403.91;5048226;28;20654;-83
2023/06/27 08:58:59;;;;;;;2.13;2.03;;;;;;;-146.25;100.00;57403.91;5047476;28;20402;-82
2023/06/27 09:01:31;;;;;;;2.75;2.55;;;;;;;-146.25;100.00;57403.91;5047181;28;20222;-82
2023/06/27 09:03:59;;;;;;;2.53;2.38;;;;;;;-146.25;100.00;57403.91;5048030;28;20238;-84
2023/06/27 09:06:27;;;;;;;2.67;2.58;;;;;;;-146.25;100.00;57403.91;5047213;28;20243;-85
2023/06/27 09:08:54;;;;;;;2.67;2.58;;;;;;;-146.25;100.00;57403.91;5047685;28;20238;-85
2023/06/27 09:11:22;;;;;;;2.33;2.17;;;;;;;-146.25;100.00;57403.91;5047481;28;20226;-85
2023/06/27 09:13:49;;;;;;;2.67;2.58;;;;;;;-146.25;100.00;57403.91;5047214;28;20605;-84
2023/06/27 09:16:16;;;;;;;3.15;2.92;;;;;;;-146.25;100.00;57403.91;5048116;28;20612;-84
2023/06/27 09:18:43;;;;;;;2.30;2.00;;;;;;;-146.25;100.00;57403.91;5048250;28;20280;-83
2023/06/27 09:21:13;;;;;;;2.47;2.28;;;;;;;-146.25;100.00;57403.91;5048003;28;20227;-84
2023/06/27 09:23:40;;;;;;;2.35;2.10;;;;;;;-146.25;100.00;57403.91;5046983;28;20242;-83
2023/06/27 09:26:10;;;;;;;2.08;1.98;;;;;;;-146.25;100.00;57403.91;5048713;28;20513;-84
2023/06/27 09:28:48;;;;;;;2.53;2.42;;;;;;;-146.25;100.00;57403.91;5047353;28;20231;-82
2023/06/27 09:31:18;;;;;;;2.40;2.30;;;;;;;-146.25;100.00;57403.91;5047940;28;20222;-83
2023/06/27 09:33:45;;;;;;;2.35;2.17;;;;;;;-146.25;100.00;57403.91;5047578;28;20622;-83
2023/06/27 09:36:31;;;;;;;2.30;2.10;;;;;;;-146.25;100.00;57403.91;5047180;28;20223;-83
2023/06/27 09:39:01;;;;;;;3.03;2.83;;;;;;;-146.25;100.00;57403.91;5047938;28;20227;-84
2023/06/27 09:41:41;;;;;;;2.17;2.08;;;;;;;-146.25;100.00;57403.91;5047502;28;20301;-84
2023/06/27 09:44:15;;;;;;;2.08;1.98;;;;;;;-146.25;100.00;57403.91;5046407;28;20242;-85
2023/06/27 09:46:43;;;;;;;1.83;1.73;;;;;;;-146.25;100.00;57403.91;5047821;28;20313;-83
2023/06/27 09:49:10;;;;;;;2.25;2.10;;;;;;;-146.25;100.00;57403.91;5047361;28;20227;-86
2023/06/27 09:51:39;;;;;;;4.00;2.35;;;;;;;-146.25;100.00;57403.91;5046356;28;20225;-83
2023/06/27 09:54:06;;;;;;;2.00;1.90;;;;;;;-146.25;100.00;57403.91;5046582;28;20250;-83
2023/06/27 09:56:35;;;;;;;2.35;2.20;;;;;;;-146.25;100.00;57403.91;5047755;28;20251;-85
2023/06/27 09:59:10;;;;;;;1.90;1.80;;;;;;;-146.25;100.00;57403.91;5046590;28;20227;-85
2023/06/27 10:01:38;;;;;;;4.60;2.13;;;;;;;-146.25;100.00;57403.91;5046703;28;20226;-84
2023/06/27 10:04:05;;;;;;;2.38;2.28;;;;;;;-146.25;100.00;57403.91;5046638;28;20223;-85
2023/06/27 10:06:33;;;;;;;2.42;2.33;;;;;;;-146.25;100.00;57403.91;5045713;28;20219;-84
2023/06/27 10:09:01;;;;;;;2.53;2.42;;;;;;;-146.25;100.00;57403.91;5047174;28;20234;-86
2023/06/27 10:11:29;;;;;;;2.40;2.30;;;;;;;-146.25;100.00;57403.91;5046571;28;20712;-84
2023/06/27 10:13:56;;;;;;;2.15;2.05;;;;;;;-146.25;100.00;57403.91;5047028;28;20243;-84
2023/06/27 10:16:23;;;;;;;2.88;2.17;;;;;;;-146.25;100.00;57403.91;5046555;28;20326;-84
2023/06/27 10:18:50;;;;;;;1.80;1.75;;;;;;;-146.25;100.00;57403.91;5047506;28;20229;-83
2023/06/27 10:21:18;;;;;;;1.90;1.80;;;;;;;-146.25;100.00;57403.91;5046433;28;20678;-86
2023/06/27 10:23:51;;;;;;;2.35;2.10;;;;;;;-146.25;100.00;57403.91;5047129;28;20227;-84
2023/06/27 10:26:21;;;;;;;2.05;1.95;;;;;;;-146.25;100.00;57403.91;5046253;28;20227;-83
2023/06/27 10:28:51;;;;;;;2.13;1.65;;;;;;;-146.25;100.00;57403.91;5046272;28;20528;-86
2023/06/27 10:31:42;;;;;;;1.75;1.75;;;;;;;-146.25;100.00;57403.91;5046583;28;20601;-84
2023/06/27 10:34:10;;;;;;;2.17;2.00;;;;;;;-146.25;100.00;57403.91;5045664;28;20334;-85
2023/06/27 10:36:58;;;;;;;1.95;1.85;;;;;;;-146.25;100.00;57403.91;5025898;28;20319;-84
2023/06/27 10:39:27;;;;;;;1.80;1.70;;;;;;;-146.25;100.00;57403.91;5027301;28;20220;-84
2023/06/27 10:42:01;;;;;;;1.73;1.63;;;;;;;-146.25;100.00;57403.91;5026505;28;20251;-83
2023/06/27 10:44:29;;;;;;;1.77;1.73;;;;;;;-146.25;100.00;57403.91;5025256;28;20289;-84
2023/06/27 10:47:29;;;;;;;1.92;1.83;;;;;;;-146.25;100.00;57403.91;5027305;28;20235;-83
2023/06/27 10:50:06;;;;;;;2.97;1.40;;;;;;;-146.25;100.00;57403.91;5027193;28;20323;-84
2023/06/27 10:52:33;;;;;;;1.70;1.60;;;;;;;-146.25;100.00;57403.91;5025308;28;20222;-83
2023/06/27 10:55:32;;;;;;;2.35;1.80;;;;;;;-146.25;100.00;57403.91;5038972;28;20711;-84
2023/06/27 10:58:10;;;;;;;2.35;2.25;;;;;;;-146.25;100.00;57403.91;4992060;28;20803;-82
2023/06/27 11:00:41;;;;;;;2.25;2.05;;;;;;;-146.25;100.00;57403.91;5026102;28;20247;-85
2023/06/27 11:03:10;;;;;;;1.75;1.65;;;;;;;-146.25;100.00;57403.91;5026123;28;20286;-84
2023/06/27 11:05:45;;;;;;;2.00;1.92;;;;;;;-146.25;100.00;57403.91;5025484;28;20601;-85
2023/06/27 11:08:15;;;;;;;3.67;1.98;;;;;;;-146.25;100.00;57403.91;5026185;28;20223;-84
2023/06/27 11:10:53;;;;;;;1.70;1.60;;;;;;;-146.25;100.00;57403.91;5026811;28;20255;-85
2023/06/27 11:13:23;;;;;;;2.55;2.35;;;;;;;-146.25;100.00;57403.91;5025839;28;20716;-83
2023/06/27 11:15:51;;;;;;;1.70;1.60;;;;;;;-146.25;100.00;57403.91;5046855;28;20234;-84